Dumfries, United Kingdom
Current Conditions -  °F | °C
As of 5:50 PM on Wednesday 17 Dec 2014 (Local Time) from EGNC Reporting Station
Rain Showers Rain Showers  
Wind Chill: 10°   Ceiling: 1400
Heat Index: 10°   Visibility: 6mi
Dew Point: 10°   Wind: 15mph
Humidity: 100%   Direction: 240°WSW
Pressure: 29.53"   Gusts: NA
Location:  55.07°N, 3.61°W
Report Text: EGNC 171750Z 24013KT 9999 VCSH SCT009 BKN014 10/10 Q1000
Loading
Personal Weather Stations






























Interactive Weather Map New forecast layout! Learn more

10-Day Weather Forecast

Advertisements
Track Severe Weather on mobile